Time;durP1;ratioP1;P1;durP2;ratioP2;P2;SDS_P1;SDS_P2;PMS_P1;PMS_P2;Temp;Humidity;BMP_temperature;BMP_pressure;BME280_temperature;BME280_humidity;BME280_pressure;Samples;Min_cycle;Max_cycle;Signal;HPM_P1;HPM_P2
2022/05/09 00:05:41;;;;;;;4.00;1.05;;;;;;;;;;20799772;28;20084;-80
2022/05/09 00:15:43;;;;;;;3.42;1.10;;;;;;;;;;20807043;28;20049;-80
2022/05/09 00:25:45;;;;;;;3.10;1.20;;;;;;;;;;20798068;28;20562;-81
2022/05/09 00:35:47;;;;;;;2.60;1.17;;;;;;;;;;20809793;28;20063;-80
2022/05/09 00:45:48;;;;;;;3.40;1.35;;;;;;;;;;20807991;28;20072;-80
2022/05/09 00:55:53;;;;;;;3.10;1.65;;;;;;;;;;20799145;28;20045;-80
2022/05/09 01:05:55;;;;;;;4.23;1.07;;;;;;;;;;20798653;28;20045;-80
2022/05/09 01:15:58;;;;;;;3.60;1.40;;;;;;;;;;20803635;28;20504;-81
2022/05/09 01:26:00;;;;;;;1.98;1.20;;;;;;;;;;20797522;28;20064;-81
2022/05/09 01:36:06;;;;;;;2.95;1.33;;;;;;;;;;20766437;28;20450;-80
2022/05/09 01:46:10;;;;;;;3.40;1.35;;;;;;;;;;20803516;28;20099;-81
2022/05/09 01:56:13;;;;;;;3.08;1.40;;;;;;;;;;20795902;28;20565;-80
2022/05/09 02:06:15;;;;;;;2.13;1.20;;;;;;;;;;20800368;28;20061;-80
2022/05/09 02:16:16;;;;;;;1.88;1.13;;;;;;;;;;20802093;28;20095;-79
2022/05/09 02:26:18;;;;;;;5.30;1.30;;;;;;;;;;21394001;22;20079;-85
2022/05/09 02:36:20;;;;;;;2.88;1.25;;;;;;;;;;20935184;28;20045;-84
2022/05/09 02:46:22;;;;;;;4.05;1.23;;;;;;;;;;20981961;28;20472;-84
2022/05/09 02:56:25;;;;;;;3.60;1.08;;;;;;;;;;20947542;28;20040;-85
2022/05/09 03:06:26;;;;;;;3.65;1.23;;;;;;;;;;20975583;28;20052;-84
2022/05/09 03:16:28;;;;;;;3.10;1.25;;;;;;;;;;20969297;28;20050;-84
2022/05/09 03:26:31;;;;;;;7.03;1.33;;;;;;;;;;20982552;28;20056;-84
2022/05/09 03:36:33;;;;;;;2.53;1.20;;;;;;;;;;20958589;28;20421;-85
2022/05/09 03:46:34;;;;;;;3.85;1.33;;;;;;;;;;20940125;28;20448;-85
2022/05/09 03:56:36;;;;;;;3.60;1.60;;;;;;;;;;20985740;28;20056;-84
2022/05/09 04:06:38;;;;;;;3.10;1.40;;;;;;;;;;20980936;28;20052;-84
2022/05/09 04:16:52;;;;;;;1.55;0.88;;;;;;;;;;20981527;28;20048;-84
2022/05/09 04:26:53;;;;;;;4.75;1.48;;;;;;;;;;20981906;28;20131;-84
2022/05/09 04:36:56;;;;;;;2.35;1.25;;;;;;;;;;20977668;28;20045;-82
2022/05/09 04:46:57;;;;;;;3.33;1.40;;;;;;;;;;20984616;28;20060;-83
2022/05/09 04:56:59;;;;;;;3.20;1.40;;;;;;;;;;20996544;28;20063;-82
2022/05/09 05:07:01;;;;;;;2.42;1.08;;;;;;;;;;20888464;28;20056;-83
2022/05/09 05:17:04;;;;;;;2.63;1.17;;;;;;;;;;20886803;28;20049;-84
2022/05/09 05:27:05;;;;;;;3.22;1.40;;;;;;;;;;20912105;28;20052;-85
2022/05/09 05:37:07;;;;;;;2.95;1.15;;;;;;;;;;20991878;28;20052;-86
2022/05/09 05:47:10;;;;;;;2.00;1.27;;;;;;;;;;20974701;28;20048;-82
2022/05/09 05:57:15;;;;;;;2.70;1.10;;;;;;;;;;20973613;28;20036;-87
2022/05/09 06:07:17;;;;;;;3.20;1.20;;;;;;;;;;20973026;28;20059;-87
2022/05/09 06:17:18;;;;;;;4.07;1.13;;;;;;;;;;20988933;28;20044;-89
2022/05/09 06:27:20;;;;;;;1.73;1.02;;;;;;;;;;20988956;28;20056;-85
2022/05/09 06:37:24;;;;;;;3.17;1.00;;;;;;;;;;20971560;28;20044;-84
2022/05/09 06:47:26;;;;;;;2.63;1.17;;;;;;;;;;20991779;28;20486;-82
2022/05/09 06:57:27;;;;;;;1.42;0.85;;;;;;;;;;20985314;28;20098;-83
2022/05/09 07:07:29;;;;;;;2.47;1.10;;;;;;;;;;20982827;28;20036;-86
2022/05/09 07:17:31;;;;;;;2.65;1.15;;;;;;;;;;20987619;28;20132;-86
2022/05/09 07:27:36;;;;;;;1.37;0.70;;;;;;;;;;20969257;28;20052;-86
2022/05/09 07:37:40;;;;;;;2.23;1.00;;;;;;;;;;20976586;28;20055;-84
2022/05/09 07:47:42;;;;;;;3.33;0.80;;;;;;;;;;21002521;28;20082;-89
2022/05/09 07:57:44;;;;;;;1.85;0.90;;;;;;;;;;21001031;28;20052;-85
2022/05/09 08:07:46;;;;;;;1.73;0.90;;;;;;;;;;20999991;28;20044;-85
2022/05/09 08:17:49;;;;;;;2.22;1.30;;;;;;;;;;20999738;28;20052;-87
2022/05/09 08:27:51;;;;;;;2.17;0.90;;;;;;;;;;20998406;28;20056;-83
2022/05/09 08:37:53;;;;;;;1.40;0.85;;;;;;;;;;20997873;28;20360;-84
2022/05/09 08:47:58;;;;;;;1.05;0.70;;;;;;;;;;20996729;28;20490;-87
2022/05/09 08:58:12;;;;;;;1.20;1.10;;;;;;;;;;20978448;28;20051;-86
2022/05/09 09:08:14;;;;;;;1.05;0.70;;;;;;;;;;20995457;28;20135;-85
2022/05/09 09:18:25;;;;;;;1.42;0.80;;;;;;;;;;20994804;28;20040;-84
2022/05/09 09:28:28;;;;;;;1.58;0.85;;;;;;;;;;20993693;28;20063;-87
2022/05/09 09:38:32;;;;;;;0.85;0.68;;;;;;;;;;20993227;28;20117;-86
2022/05/09 09:48:34;;;;;;;1.23;0.80;;;;;;;;;;20974251;28;20044;-85
2022/05/09 09:58:38;;;;;;;2.10;0.80;;;;;;;;;;20972935;28;20094;-87
2022/05/09 10:08:41;;;;;;;1.85;0.80;;;;;;;;;;20991188;28;20044;-87
2022/05/09 10:18:44;;;;;;;2.13;0.85;;;;;;;;;;20989598;28;20068;-85
2022/05/09 10:29:01;;;;;;;1.58;1.00;;;;;;;;;;20902765;28;20060;-85
2022/05/09 10:39:16;;;;;;;1.85;0.70;;;;;;;;;;20907815;28;20465;-87
2022/05/09 10:49:24;;;;;;;2.70;0.80;;;;;;;;;;20885661;28;20084;-89
2022/05/09 10:59:33;;;;;;;1.35;0.82;;;;;;;;;;20909641;28;20800;-86
2022/05/09 11:09:34;;;;;;;2.00;0.93;;;;;;;;;;20911444;28;20102;-87
2022/05/09 11:19:42;;;;;;;1.83;1.00;;;;;;;;;;20924445;28;20501;-85
2022/05/09 11:30:02;;;;;;;1.23;0.70;;;;;;;;;;20987496;28;20047;-85
2022/05/09 11:40:29;;;;;;;3.30;1.10;;;;;;;;;;20989073;28;20119;-83
2022/05/09 11:50:42;;;;;;;13.02;1.65;;;;;;;;;;20983947;28;20060;-84
2022/05/09 12:00:47;;;;;;;5.15;1.45;;;;;;;;;;20941497;28;20045;-87
2022/05/09 12:11:09;;;;;;;2.97;1.13;;;;;;;;;;20916838;28;20051;-85
2022/05/09 12:21:21;;;;;;;4.30;1.08;;;;;;;;;;20915100;28;20119;-83
2022/05/09 12:31:29;;;;;;;5.22;1.40;;;;;;;;;;20972958;28;20045;-84
2022/05/09 12:41:39;;;;;;;2.45;1.17;;;;;;;;;;20977225;28;20048;-86
2022/05/09 12:51:42;;;;;;;6.32;1.20;;;;;;;;;;20994463;28;20135;-84
2022/05/09 13:01:50;;;;;;;2.53;1.10;;;;;;;;;;20975383;28;20083;-85
2022/05/09 13:12:18;;;;;;;4.35;1.35;;;;;;;;;;20995367;28;20479;-84
2022/05/09 13:22:21;;;;;;;9.50;2.15;;;;;;;;;;20994752;28;20153;-83
2022/05/09 13:32:25;;;;;;;3.07;1.20;;;;;;;;;;20994258;28;20056;-85
2022/05/09 13:42:31;;;;;;;3.38;1.10;;;;;;;;;;20987124;28;20425;-85
2022/05/09 13:52:37;;;;;;;3.00;1.30;;;;;;;;;;20972202;28;20490;-85
2022/05/09 14:02:39;;;;;;;4.35;1.20;;;;;;;;;;20991545;28;20052;-83
2022/05/09 14:12:40;;;;;;;2.15;0.98;;;;;;;;;;20990688;28;20075;-83
2022/05/09 14:22:46;;;;;;;1.65;0.85;;;;;;;;;;20989804;28;20498;-82
2022/05/09 14:32:49;;;;;;;2.03;0.88;;;;;;;;;;20987492;28;20098;-81
2022/05/09 14:42:51;;;;;;;1.27;0.80;;;;;;;;;;20988621;28;20044;-83
2022/05/09 14:52:59;;;;;;;1.25;0.95;;;;;;;;;;20970965;28;20516;-82
2022/05/09 15:03:02;;;;;;;1.70;1.08;;;;;;;;;;20988381;28;20051;-83
2022/05/09 15:13:03;;;;;;;3.75;1.33;;;;;;;;;;20970100;28;20106;-82
2022/05/09 15:23:05;;;;;;;2.22;1.20;;;;;;;;;;20987232;28;20106;-83
2022/05/09 15:33:07;;;;;;;2.00;0.98;;;;;;;;;;20969083;28;20036;-82
2022/05/09 15:43:11;;;;;;;2.97;0.90;;;;;;;;;;20986558;28;20059;-84
2022/05/09 15:53:13;;;;;;;2.00;1.17;;;;;;;;;;20986054;28;20046;-87
2022/05/09 16:03:27;;;;;;;2.15;1.00;;;;;;;;;;21000779;28;20466;-83
2022/05/09 16:13:39;;;;;;;1.58;0.85;;;;;;;;;;20981148;28;20055;-83
2022/05/09 16:23:41;;;;;;;2.00;0.85;;;;;;;;;;20982360;28;20056;-83
2022/05/09 16:33:51;;;;;;;2.00;1.25;;;;;;;;;;20981132;28;20056;-83
2022/05/09 16:43:54;;;;;;;0.98;0.90;;;;;;;;;;20997556;28;20406;-84
2022/05/09 16:53:56;;;;;;;2.03;1.30;;;;;;;;;;20996808;28;20049;-86
2022/05/09 17:03:58;;;;;;;1.15;0.70;;;;;;;;;;20996264;28;20040;-83
2022/05/09 17:14:07;;;;;;;1.67;0.90;;;;;;;;;;20995183;28;20060;-85
2022/05/09 17:24:09;;;;;;;1.60;0.85;;;;;;;;;;20994417;28;20056;-87
2022/05/09 17:34:15;;;;;;;1.70;1.00;;;;;;;;;;20986931;28;20474;-84
2022/05/09 17:44:16;;;;;;;1.92;0.95;;;;;;;;;;20991983;28;20040;-83
2022/05/09 17:54:21;;;;;;;1.20;0.80;;;;;;;;;;20958151;28;20098;-84
2022/05/09 18:04:28;;;;;;;1.35;0.80;;;;;;;;;;20991921;28;20135;-85
2022/05/09 18:14:32;;;;;;;1.33;0.90;;;;;;;;;;20973802;28;20803;-85
2022/05/09 18:24:36;;;;;;;0.98;0.73;;;;;;;;;;20989500;28;20490;-84
2022/05/09 18:34:38;;;;;;;2.75;0.90;;;;;;;;;;20989541;28;20048;-86
2022/05/09 18:44:40;;;;;;;1.70;0.88;;;;;;;;;;20989441;28;20049;-86
2022/05/09 18:54:42;;;;;;;1.13;0.80;;;;;;;;;;20984534;28;20045;-90
2022/05/09 19:04:52;;;;;;;1.92;0.75;;;;;;;;;;20914863;28;20041;-90
2022/05/09 19:14:54;;;;;;;0.98;0.70;;;;;;;;;;20970934;28;20041;-88
2022/05/09 19:24:56;;;;;;;0.98;0.80;;;;;;;;;;20968124;28;20045;-89
2022/05/09 19:34:59;;;;;;;0.75;0.75;;;;;;;;;;20967716;28;20048;-89
2022/05/09 19:45:03;;;;;;;1.33;1.08;;;;;;;;;;20987538;28;20463;-88
2022/05/09 19:55:08;;;;;;;1.10;0.90;;;;;;;;;;20985157;28;20109;-89
2022/05/09 20:05:13;;;;;;;0.85;0.70;;;;;;;;;;20986527;28;20054;-90
2022/05/09 20:15:15;;;;;;;0.82;0.80;;;;;;;;;;21002340;28;20144;-89
2022/05/09 20:25:17;;;;;;;0.88;0.75;;;;;;;;;;20981706;28;20122;-90
2022/05/09 20:35:19;;;;;;;1.30;0.95;;;;;;;;;;20998039;28;20052;-88
2022/05/09 20:45:24;;;;;;;;;;;;;;;;;;20997136;28;20120;-88
2022/05/09 20:55:25;;;;;;;1.40;1.00;;;;;;;;;;20977749;28;19924;-89
2022/05/09 21:05:29;;;;;;;0.77;0.70;;;;;;;;;;20977885;28;20545;-91
2022/05/09 21:15:34;;;;;;;1.13;1.00;;;;;;;;;;20966932;28;20048;-90
2022/05/09 21:25:39;;;;;;;0.80;0.75;;;;;;;;;;20997271;28;20072;-89
2022/05/09 21:35:42;;;;;;;1.42;0.88;;;;;;;;;;20995703;28;20131;-89
2022/05/09 21:45:51;;;;;;;0.95;0.70;;;;;;;;;;20968871;28;20079;-88
2022/05/09 21:55:53;;;;;;;1.73;1.20;;;;;;;;;;20985565;28;20045;-87
2022/05/09 22:05:55;;;;;;;2.08;1.25;;;;;;;;;;21002519;28;20117;-88
2022/05/09 22:16:04;;;;;;;1.67;0.88;;;;;;;;;;20972394;28;20052;-87
2022/05/09 22:26:06;;;;;;;1.23;1.00;;;;;;;;;;21006817;28;20143;-87
2022/05/09 22:36:08;;;;;;;1.45;1.15;;;;;;;;;;20966158;28;20087;-80
2022/05/09 22:46:12;;;;;;;0.90;0.90;;;;;;;;;;20946760;28;20051;-79
2022/05/09 22:56:14;;;;;;;1.20;0.93;;;;;;;;;;20980975;28;20044;-81
2022/05/09 23:06:16;;;;;;;1.92;1.00;;;;;;;;;;21001225;28;20510;-81
2022/05/09 23:16:24;;;;;;;1.75;0.93;;;;;;;;;;20997164;28;20037;-81
2022/05/09 23:26:26;;;;;;;1.50;0.95;;;;;;;;;;20994268;28;20556;-81
2022/05/09 23:36:29;;;;;;;2.13;1.10;;;;;;;;;;21016191;28;20406;-81
2022/05/09 23:46:35;;;;;;;1.08;0.95;;;;;;;;;;20994879;28;20048;-82
2022/05/09 23:56:40;;;;;;;1.77;1.00;;;;;;;;;;20975778;28;20084;-82
